createdAt,value
2022-12-04T00:01:21.107Z,19.60
2022-12-04T00:03:47.718Z,19.27
2022-12-04T00:06:19.594Z,22.97
2022-12-04T00:08:47.733Z,16.07
2022-12-04T00:11:17.282Z,18.90
2022-12-04T00:13:44.261Z,20.60
2022-12-04T00:16:18.933Z,19.63
2022-12-04T00:18:45.553Z,18.97
2022-12-04T00:21:14.409Z,19.57
2022-12-04T00:23:41.614Z,19.63
2022-12-04T00:26:14.623Z,20.07
2022-12-04T00:28:42.245Z,20.23
2022-12-04T00:31:11.638Z,21.40
2022-12-04T00:33:38.651Z,20.40
2022-12-04T00:36:12.601Z,19.83
2022-12-04T00:38:40.255Z,20.53
2022-12-04T00:41:12.025Z,21.33
2022-12-04T00:43:38.944Z,19.33
2022-12-04T00:46:05.838Z,16.87
2022-12-04T00:48:32.466Z,17.17
2022-12-04T00:51:08.244Z,19.37
2022-12-04T00:53:34.954Z,18.27
2022-12-04T00:56:11.162Z,17.97
2022-12-04T00:58:37.884Z,19.60
2022-12-04T01:01:10.222Z,19.93
2022-12-04T01:03:37.171Z,19.80
2022-12-04T01:06:04.519Z,19.37
2022-12-04T01:08:31.884Z,19.27
2022-12-04T01:10:58.925Z,19.70
2022-12-04T01:13:26.564Z,18.53
2022-12-04T01:15:53.245Z,19.37
2022-12-04T01:18:19.792Z,19.47
2022-12-04T01:20:51.111Z,18.07
2022-12-04T01:23:18.659Z,20.53
2022-12-04T01:25:54.048Z,18.67
2022-12-04T01:28:20.950Z,19.90
2022-12-04T01:31:03.613Z,17.43
2022-12-04T01:33:30.786Z,18.13
2022-12-04T01:35:59.268Z,19.07
2022-12-04T01:38:26.502Z,18.77
2022-12-04T01:40:53.890Z,19.47
2022-12-04T01:43:21.181Z,17.63
2022-12-04T01:45:50.720Z,16.90
2022-12-04T01:48:20.316Z,18.30
2022-12-04T01:50:49.605Z,18.97
2022-12-04T01:53:16.725Z,19.97
2022-12-04T01:55:44.441Z,19.30
2022-12-04T01:58:11.381Z,19.33
2022-12-04T02:00:38.102Z,21.13
2022-12-04T02:03:04.936Z,19.57
2022-12-04T02:17:08.810Z,17.67
2022-12-04T02:19:47.618Z,17.43
2022-12-04T02:22:52.962Z,15.87
2022-12-04T02:25:25.099Z,16.33
2022-12-04T02:28:00.754Z,17.07
2022-12-04T02:30:29.205Z,13.53
2022-12-04T02:33:15.978Z,16.90
2022-12-04T02:36:20.772Z,16.13
2022-12-04T02:39:00.215Z,18.67
2022-12-04T02:41:35.085Z,18.07
2022-12-04T02:44:22.239Z,18.23
2022-12-04T02:46:54.893Z,16.70
2022-12-04T02:49:27.941Z,18.23
2022-12-04T02:51:58.440Z,17.53
2022-12-04T02:54:34.630Z,19.20
2022-12-04T02:57:04.855Z,19.57
2022-12-04T02:59:38.090Z,19.20
2022-12-04T03:02:10.806Z,18.30
2022-12-04T03:04:39.843Z,18.83
2022-12-04T03:07:17.733Z,18.00
2022-12-04T03:09:54.744Z,19.23
2022-12-04T03:12:38.079Z,18.03
2022-12-04T03:15:33.069Z,18.03
2022-12-04T03:18:16.706Z,19.27
2022-12-04T03:20:46.774Z,19.47
2022-12-04T03:23:18.618Z,18.47
2022-12-04T03:26:20.425Z,19.13
2022-12-04T03:29:00.297Z,18.47
2022-12-04T03:31:45.576Z,17.60
2022-12-04T03:34:15.841Z,18.73
2022-12-04T03:36:55.297Z,17.57
2022-12-04T03:39:30.771Z,17.93
2022-12-04T03:42:22.353Z,18.83
2022-12-04T03:44:54.263Z,17.60
2022-12-04T03:47:36.925Z,16.37
2022-12-04T03:50:08.694Z,15.37
2022-12-04T03:52:42.870Z,20.27
2022-12-04T03:55:31.083Z,16.50
2022-12-04T03:58:03.204Z,15.70
2022-12-04T04:00:32.742Z,15.80
2022-12-04T04:03:06.982Z,14.73
2022-12-04T04:05:36.986Z,17.07
2022-12-04T04:08:25.259Z,16.23
2022-12-04T04:10:55.471Z,17.00
2022-12-04T04:13:46.424Z,24.67
2022-12-04T04:16:35.421Z,16.97
2022-12-04T04:19:21.540Z,22.40
2022-12-04T04:22:09.576Z,18.43
2022-12-04T04:25:01.023Z,20.17
2022-12-04T04:27:27.582Z,21.27
2022-12-04T04:29:54.765Z,17.80
2022-12-04T04:32:24.413Z,19.30
2022-12-04T04:35:00.690Z,22.90
2022-12-04T04:37:57.833Z,20.87
2022-12-04T04:40:33.349Z,19.10
2022-12-04T04:43:20.928Z,16.83
2022-12-04T04:45:53.960Z,16.70
2022-12-04T04:48:32.724Z,18.20
2022-12-04T04:51:00.913Z,18.70
2022-12-04T04:53:33.529Z,17.90
2022-12-04T04:56:00.185Z,19.83
2022-12-04T04:58:26.732Z,19.63
2022-12-04T05:01:01.898Z,18.63
2022-12-04T05:03:29.825Z,20.00
2022-12-04T05:05:56.413Z,19.50
2022-12-04T05:08:23.568Z,19.20
2022-12-04T05:10:50.839Z,21.27
2022-12-04T05:13:18.447Z,20.87
2022-12-04T05:16:06.118Z,20.33
2022-12-04T05:18:34.618Z,17.63
2022-12-04T05:21:16.661Z,19.27
2022-12-04T05:23:43.731Z,19.90
2022-12-04T05:26:10.309Z,20.97
2022-12-04T05:28:36.937Z,19.33
2022-12-04T05:31:04.943Z,17.37
2022-12-04T05:33:31.522Z,19.80
2022-12-04T05:35:59.027Z,16.70
2022-12-04T05:38:25.715Z,17.47
2022-12-04T05:40:52.426Z,18.57
2022-12-04T05:43:19.147Z,26.20
2022-12-04T05:45:46.037Z,18.37
2022-12-04T05:48:13.860Z,19.13
2022-12-04T05:50:40.376Z,19.13
2022-12-04T05:53:06.993Z,18.13
2022-12-04T05:55:33.580Z,18.37
2022-12-04T05:58:00.703Z,19.60
2022-12-04T06:00:27.450Z,20.40
2022-12-04T06:02:54.020Z,17.17
2022-12-04T06:05:20.838Z,17.90
2022-12-04T06:07:47.454Z,15.90
2022-12-04T06:10:14.047Z,17.20
2022-12-04T06:12:40.609Z,19.60
2022-12-04T06:15:07.587Z,20.17
2022-12-04T06:17:34.158Z,19.90
2022-12-04T06:20:01.060Z,20.87
2022-12-04T06:22:28.022Z,23.43
2022-12-04T06:24:54.532Z,22.00
2022-12-04T06:27:28.820Z,18.87
2022-12-04T06:29:56.037Z,24.50
2022-12-04T06:32:22.875Z,18.37
2022-12-04T06:34:53.897Z,17.57
2022-12-04T06:37:25.142Z,20.53
2022-12-04T06:39:51.679Z,21.60
2022-12-04T06:42:18.413Z,23.10
2022-12-04T06:44:45.053Z,29.67
2022-12-04T06:47:11.621Z,22.67
2022-12-04T06:49:38.172Z,21.40
2022-12-04T06:52:04.754Z,22.17
2022-12-04T06:54:31.320Z,25.93
2022-12-04T06:56:57.855Z,28.97
2022-12-04T06:59:24.414Z,25.53
2022-12-04T07:01:51.060Z,25.87
2022-12-04T07:04:17.811Z,30.33
2022-12-04T07:06:44.341Z,30.63
2022-12-04T07:09:14.925Z,25.87
2022-12-04T07:11:43.000Z,30.00
2022-12-04T07:14:10.504Z,31.40
2022-12-04T07:16:41.051Z,36.57
2022-12-04T07:19:09.564Z,32.70
2022-12-04T07:21:36.109Z,28.73
2022-12-04T07:24:02.855Z,25.13
2022-12-04T07:26:30.616Z,23.43
2022-12-04T07:28:58.263Z,20.30
2022-12-04T07:31:27.981Z,19.97
2022-12-04T07:33:55.476Z,20.73
2022-12-04T07:36:23.534Z,22.10
2022-12-04T07:38:50.810Z,17.57
2022-12-04T07:41:18.177Z,20.40
2022-12-04T07:43:45.105Z,20.80
2022-12-04T07:46:31.975Z,21.30
2022-12-04T07:48:59.179Z,18.73
2022-12-04T07:51:28.427Z,21.70
2022-12-04T07:54:02.075Z,21.30
2022-12-04T07:56:30.018Z,20.47
2022-12-04T07:58:56.597Z,23.13
2022-12-04T08:01:24.045Z,21.17
2022-12-04T08:03:53.340Z,22.63
2022-12-04T08:06:22.910Z,23.40
2022-12-04T08:08:50.486Z,24.23
2022-12-04T08:11:22.187Z,24.20
2022-12-04T08:13:53.630Z,24.57
2022-12-04T08:16:20.237Z,24.67
2022-12-04T08:18:48.612Z,27.37
2022-12-04T08:21:22.565Z,23.33
2022-12-04T08:23:53.670Z,24.03
2022-12-04T08:26:22.397Z,23.30
2022-12-04T08:28:49.297Z,23.20
2022-12-04T08:31:19.109Z,23.50
2022-12-04T08:33:47.515Z,26.57
2022-12-04T08:36:16.761Z,26.13
2022-12-04T08:38:43.517Z,23.57
2022-12-04T08:41:13.343Z,24.47
2022-12-04T08:43:40.344Z,23.13
2022-12-04T08:46:10.208Z,23.83
2022-12-04T08:48:37.198Z,24.40
2022-12-04T08:51:04.760Z,27.63
2022-12-04T08:53:32.121Z,25.53
2022-12-04T08:56:01.496Z,29.17
2022-12-04T08:58:28.164Z,22.53
2022-12-04T09:00:54.678Z,23.47
2022-12-04T09:03:27.571Z,24.07
2022-12-04T09:06:00.482Z,23.97
2022-12-04T09:08:27.958Z,20.63
2022-12-04T09:10:54.614Z,20.17
2022-12-04T09:13:21.175Z,21.10
2022-12-04T09:15:47.783Z,22.37
2022-12-04T09:18:14.472Z,23.40
2022-12-04T09:20:41.033Z,21.43
2022-12-04T09:23:07.782Z,21.37
2022-12-04T09:25:37.876Z,22.60
2022-12-04T09:28:04.819Z,23.00
2022-12-04T09:30:31.657Z,21.90
2022-12-04T09:32:58.188Z,22.20
2022-12-04T09:35:24.734Z,21.60
2022-12-04T09:37:51.326Z,22.23
2022-12-04T09:40:39.582Z,20.83
2022-12-04T09:43:29.210Z,19.50
2022-12-04T09:46:02.347Z,21.03
2022-12-04T09:48:34.684Z,21.97
2022-12-04T09:51:03.250Z,20.43
2022-12-04T09:53:56.009Z,19.87
2022-12-04T09:56:25.629Z,20.20
2022-12-04T09:59:26.885Z,20.47
2022-12-04T10:02:30.855Z,19.37
2022-12-04T10:04:57.504Z,18.03
2022-12-04T10:07:36.884Z,19.03
2022-12-04T10:10:35.542Z,19.20
2022-12-04T10:13:44.205Z,19.13
2022-12-04T10:16:28.373Z,18.93
2022-12-04T10:19:13.742Z,19.43
2022-12-04T10:21:43.005Z,21.00
2022-12-04T10:24:21.461Z,20.30
2022-12-04T10:26:48.991Z,20.60
2022-12-04T10:29:22.730Z,20.77
2022-12-04T10:31:51.821Z,20.23
2022-12-04T10:34:29.678Z,20.63
2022-12-04T10:37:01.801Z,20.80
2022-12-04T10:39:38.941Z,20.63
2022-12-04T10:42:26.983Z,21.43
2022-12-04T10:44:54.199Z,19.47
2022-12-04T10:47:23.938Z,19.20
2022-12-04T10:49:59.648Z,20.50
2022-12-04T10:52:26.685Z,18.43
2022-12-04T10:55:01.472Z,16.17
2022-12-04T10:57:45.874Z,17.10
2022-12-04T11:00:35.229Z,17.10
2022-12-04T11:03:08.519Z,19.33
2022-12-04T11:05:52.924Z,19.50
2022-12-04T11:08:27.063Z,21.80
2022-12-04T11:11:07.673Z,19.60
2022-12-04T11:13:34.511Z,19.03
2022-12-04T11:16:01.269Z,18.87
2022-12-04T11:18:33.662Z,19.83
2022-12-04T11:21:05.417Z,18.90
2022-12-04T11:23:35.666Z,18.80
2022-12-04T11:26:06.300Z,18.37
2022-12-04T11:28:43.086Z,18.30
2022-12-04T11:31:16.312Z,17.37
2022-12-04T11:33:50.033Z,16.67
2022-12-04T11:36:33.610Z,17.13
2022-12-04T11:39:40.797Z,16.83
2022-12-04T11:42:13.236Z,17.10
2022-12-04T11:44:49.322Z,17.63
2022-12-04T11:47:18.315Z,17.47
2022-12-04T11:49:45.229Z,18.87
2022-12-04T11:52:25.463Z,20.43
2022-12-04T11:55:02.193Z,17.73
2022-12-04T11:57:43.053Z,24.87
2022-12-04T12:00:21.794Z,19.00
2022-12-04T12:03:20.598Z,19.17
2022-12-04T12:06:09.177Z,20.00
2022-12-04T12:08:50.709Z,19.30
2022-12-04T12:11:26.716Z,19.63
2022-12-04T12:13:56.219Z,22.20
2022-12-04T12:16:51.274Z,22.23
2022-12-04T12:19:42.734Z,19.30
2022-12-04T12:22:12.144Z,21.13
2022-12-04T12:25:16.276Z,24.40
2022-12-04T12:28:01.326Z,17.20
2022-12-04T12:30:37.245Z,26.10
2022-12-04T12:33:12.631Z,25.87
2022-12-04T12:35:47.940Z,22.73
2022-12-04T12:38:19.737Z,22.07
2022-12-04T12:40:55.581Z,23.27
2022-12-04T12:43:32.982Z,22.90
2022-12-04T12:46:16.849Z,30.47
2022-12-04T12:48:57.923Z,19.80
2022-12-04T12:51:33.925Z,20.87
2022-12-04T12:54:31.400Z,25.47
2022-12-04T12:57:24.631Z,20.10
2022-12-04T13:00:06.239Z,23.37
2022-12-04T13:02:54.429Z,26.70
2022-12-04T13:05:27.756Z,23.03
2022-12-04T13:08:25.337Z,27.53
2022-12-04T13:11:16.045Z,26.63
2022-12-04T13:14:03.990Z,24.20
2022-12-04T13:16:41.765Z,26.20
2022-12-04T13:19:31.132Z,20.50
2022-12-04T13:22:06.479Z,21.20
2022-12-04T13:25:11.189Z,21.90
2022-12-04T13:27:59.341Z,23.73
2022-12-04T13:31:07.360Z,23.63
2022-12-04T13:34:12.105Z,21.80
2022-12-04T13:36:48.792Z,19.40
2022-12-04T13:39:40.759Z,18.67
2022-12-04T13:42:22.005Z,21.50
2022-12-04T13:44:55.449Z,21.90
2022-12-04T13:47:32.016Z,20.40
2022-12-04T13:50:20.522Z,18.63
2022-12-04T13:52:49.368Z,23.27
2022-12-04T13:55:26.272Z,20.40
2022-12-04T13:58:00.771Z,19.97
2022-12-04T14:00:37.984Z,24.03
2022-12-04T14:03:21.073Z,19.37
2022-12-04T14:05:48.110Z,23.97
2022-12-04T14:08:20.671Z,17.97
2022-12-04T14:10:58.373Z,22.97
2022-12-04T14:13:29.674Z,20.87
2022-12-04T14:16:19.886Z,23.67
2022-12-04T14:18:56.308Z,23.10
2022-12-04T14:21:23.429Z,18.53
2022-12-04T14:23:51.296Z,29.00
2022-12-04T14:29:46.252Z,20.33
2022-12-04T14:32:25.302Z,29.40
2022-12-04T14:34:53.430Z,21.90
2022-12-04T14:37:40.149Z,21.17
2022-12-04T14:40:16.295Z,21.53
2022-12-04T14:42:42.904Z,23.17
2022-12-04T14:45:56.112Z,31.23
2022-12-04T14:48:28.470Z,25.37
2022-12-04T14:51:25.013Z,22.77
2022-12-04T14:54:00.708Z,24.13
2022-12-04T14:56:30.221Z,28.83
2022-12-04T14:58:58.105Z,23.50
2022-12-04T15:01:29.678Z,28.60
2022-12-04T15:03:59.731Z,29.90
2022-12-04T15:06:29.767Z,24.10
2022-12-04T15:09:20.682Z,31.33
2022-12-04T15:12:08.816Z,29.33
2022-12-04T15:14:44.254Z,26.83
2022-12-04T15:17:12.597Z,27.80
2022-12-04T15:19:40.086Z,35.57
2022-12-04T15:22:27.402Z,24.60
2022-12-04T15:24:55.329Z,23.77
2022-12-04T15:27:31.740Z,22.33
2022-12-04T15:30:00.338Z,31.20
2022-12-04T15:32:28.799Z,34.03
2022-12-04T15:35:02.393Z,58.07
2022-12-04T15:37:30.988Z,42.17
2022-12-04T15:39:58.606Z,18.90
2022-12-04T15:42:29.023Z,33.50
2022-12-04T15:45:02.002Z,24.40
2022-12-04T15:47:37.317Z,22.27
2022-12-04T15:50:20.337Z,19.73
2022-12-04T15:52:57.253Z,52.23
2022-12-04T15:55:25.210Z,24.80
2022-12-04T15:58:02.060Z,19.63
2022-12-04T16:00:37.856Z,41.10
2022-12-04T16:03:42.671Z,37.60
2022-12-04T16:06:27.526Z,68.40
2022-12-04T16:08:55.608Z,53.87
2022-12-04T16:11:22.116Z,43.40
2022-12-04T16:14:17.585Z,73.27
2022-12-04T16:16:50.174Z,71.70
2022-12-04T16:19:33.581Z,39.00
2022-12-04T16:22:03.045Z,77.30
2022-12-04T16:24:29.686Z,43.07
2022-12-04T16:26:58.759Z,64.07
2022-12-04T16:29:25.461Z,59.07
2022-12-04T16:31:52.097Z,65.30
2022-12-04T16:34:18.950Z,86.97
2022-12-04T16:36:45.556Z,64.43
2022-12-04T16:39:12.093Z,55.30
2022-12-04T16:41:40.012Z,50.50
2022-12-04T16:44:13.427Z,47.17
2022-12-04T16:46:40.384Z,44.67
2022-12-04T16:49:07.775Z,37.63
2022-12-04T16:51:37.559Z,47.97
2022-12-04T16:54:04.265Z,45.47
2022-12-04T16:56:30.802Z,44.43
2022-12-04T16:58:57.381Z,63.03
2022-12-04T17:01:27.560Z,45.30
2022-12-04T17:03:54.297Z,44.03
2022-12-04T17:06:21.192Z,58.07
2022-12-04T17:08:47.752Z,64.13
2022-12-04T17:11:16.731Z,43.40
2022-12-04T17:13:43.529Z,48.83
2022-12-04T17:16:14.025Z,43.00
2022-12-04T17:18:41.514Z,64.70
2022-12-04T17:21:09.701Z,95.10
2022-12-04T17:23:36.685Z,123.60
2022-12-04T17:26:04.956Z,84.67
2022-12-04T17:28:32.121Z,53.00
2022-12-04T17:30:59.120Z,128.23
2022-12-04T17:33:25.836Z,55.80
2022-12-04T17:35:54.098Z,55.87
2022-12-04T17:38:20.916Z,52.03
2022-12-04T17:40:58.786Z,44.10
2022-12-04T17:43:25.588Z,61.47
2022-12-04T17:45:52.184Z,46.07
2022-12-04T17:48:18.743Z,41.93
2022-12-04T17:50:45.419Z,42.57
2022-12-04T17:53:11.933Z,32.67
2022-12-04T17:55:38.513Z,40.23
2022-12-04T17:58:05.045Z,44.10
2022-12-04T18:00:31.769Z,36.30
2022-12-04T18:02:58.452Z,34.80
2022-12-04T18:05:25.046Z,40.77
2022-12-04T18:07:51.739Z,32.17
2022-12-04T18:10:18.332Z,38.57
2022-12-04T18:12:44.846Z,45.93
2022-12-04T18:15:11.426Z,47.43
2022-12-04T18:17:39.655Z,37.07
2022-12-04T18:20:08.240Z,35.50
2022-12-04T18:22:34.920Z,29.90
2022-12-04T18:25:01.500Z,39.03
2022-12-04T18:27:28.055Z,34.70
2022-12-04T18:29:54.908Z,38.80
2022-12-04T18:32:21.634Z,68.23
2022-12-04T18:34:48.194Z,45.13
2022-12-04T18:37:14.731Z,42.17
2022-12-04T18:39:41.328Z,46.60
2022-12-04T18:42:07.824Z,40.83
2022-12-04T18:44:34.360Z,43.17
2022-12-04T18:47:00.860Z,41.90
2022-12-04T18:49:27.449Z,37.03
2022-12-04T18:51:53.964Z,36.37
2022-12-04T18:54:23.704Z,31.50
2022-12-04T18:56:50.944Z,41.30
2022-12-04T18:59:20.080Z,28.37
2022-12-04T19:01:46.710Z,36.00
2022-12-04T19:04:16.712Z,28.93
2022-12-04T19:06:46.066Z,44.67
2022-12-04T19:09:15.690Z,40.73
2022-12-04T19:11:42.790Z,32.97
2022-12-04T19:14:20.685Z,45.20
2022-12-04T19:16:49.260Z,38.73
2022-12-04T19:19:15.964Z,34.00
2022-12-04T19:21:42.664Z,32.73
2022-12-04T19:24:10.465Z,26.40
2022-12-04T19:26:37.222Z,23.40
2022-12-04T19:29:05.205Z,27.13
2022-12-04T19:31:36.782Z,24.57
2022-12-04T19:34:04.401Z,21.40
2022-12-04T19:36:32.427Z,24.50
2022-12-04T19:39:00.293Z,27.23
2022-12-04T19:41:30.144Z,17.80
2022-12-04T19:43:59.818Z,16.50
2022-12-04T19:46:29.123Z,15.47
2022-12-04T19:48:58.679Z,15.30
2022-12-04T19:51:26.088Z,14.67
2022-12-04T19:53:53.989Z,15.07
2022-12-04T19:56:24.292Z,13.53
2022-12-04T19:58:52.379Z,13.10
2022-12-04T20:01:21.726Z,12.80
2022-12-04T20:03:48.241Z,12.20
2022-12-04T20:06:20.300Z,11.60
2022-12-04T20:08:48.124Z,11.40
2022-12-04T20:11:18.145Z,12.07
2022-12-04T20:13:46.786Z,11.40
2022-12-04T20:16:16.783Z,11.53
2022-12-04T20:18:44.541Z,11.97
2022-12-04T20:21:12.607Z,10.83
2022-12-04T20:23:46.365Z,11.53
2022-12-04T20:26:14.312Z,11.83
2022-12-04T20:28:41.539Z,11.23
2022-12-04T20:31:16.403Z,12.87
2022-12-04T20:33:43.996Z,12.67
2022-12-04T20:36:11.049Z,11.87
2022-12-04T20:38:38.044Z,10.80
2022-12-04T20:41:10.369Z,14.30
2022-12-04T20:43:37.125Z,9.57
2022-12-04T20:46:15.668Z,11.80
2022-12-04T20:48:48.184Z,11.57
2022-12-04T20:51:23.896Z,9.87
2022-12-04T20:53:51.838Z,10.33
2022-12-04T20:56:19.497Z,9.97
2022-12-04T20:58:46.294Z,9.13
2022-12-04T21:01:15.714Z,10.37
2022-12-04T21:03:43.354Z,9.97
2022-12-04T21:06:19.169Z,13.43
2022-12-04T21:08:58.613Z,10.00
2022-12-04T21:11:30.740Z,12.23
2022-12-04T21:14:17.894Z,10.27
2022-12-04T21:16:44.874Z,15.53
2022-12-04T21:19:14.345Z,15.30
2022-12-04T21:21:40.961Z,16.60
2022-12-04T21:24:10.026Z,45.83
2022-12-04T21:26:36.735Z,150.37
2022-12-04T21:29:04.843Z,73.73
2022-12-04T21:34:14.651Z,230.03
2022-12-04T21:36:41.621Z,335.97
2022-12-04T21:39:08.919Z,201.83
2022-12-04T21:41:54.313Z,132.97
2022-12-04T21:44:21.699Z,108.27
2022-12-04T21:46:49.369Z,191.70
2022-12-04T21:49:17.736Z,137.37
2022-12-04T21:52:00.017Z,187.63
2022-12-04T21:54:27.841Z,164.73
2022-12-04T21:56:54.958Z,26.43
2022-12-04T21:59:21.607Z,28.30
2022-12-04T22:01:48.303Z,22.03
2022-12-04T22:04:15.195Z,22.60
2022-12-04T22:06:42.076Z,20.77
2022-12-04T22:09:10.912Z,30.03
2022-12-04T22:11:38.513Z,30.07
2022-12-04T22:14:05.044Z,23.13
2022-12-04T22:16:34.635Z,31.60
2022-12-04T22:19:04.264Z,31.87
2022-12-04T22:21:30.870Z,27.83
2022-12-04T22:23:59.002Z,18.83
2022-12-04T22:26:27.040Z,21.23
2022-12-04T22:28:53.700Z,148.10
2022-12-04T22:31:22.401Z,22.50
2022-12-04T22:33:50.976Z,30.93
2022-12-04T22:36:21.282Z,24.63
2022-12-04T22:39:08.297Z,24.20
2022-12-04T22:41:34.996Z,16.63
2022-12-04T22:44:01.509Z,19.50
2022-12-04T22:46:28.090Z,32.43
2022-12-04T22:48:54.703Z,26.43
2022-12-04T22:51:22.066Z,22.27
2022-12-04T22:53:54.109Z,16.50
2022-12-04T22:56:24.777Z,22.53
2022-12-04T22:58:52.127Z,25.13
2022-12-04T23:01:24.772Z,13.03
2022-12-04T23:03:52.216Z,11.90
2022-12-04T23:06:20.504Z,11.90
2022-12-04T23:08:47.337Z,12.10
2022-12-04T23:11:17.535Z,14.80
2022-12-04T23:13:49.181Z,10.57
2022-12-04T23:16:20.008Z,18.23
2022-12-04T23:18:47.291Z,11.73
2022-12-04T23:21:14.899Z,13.57
2022-12-04T23:23:44.029Z,11.57
2022-12-04T23:26:16.924Z,13.73
2022-12-04T23:28:44.016Z,16.57
2022-12-04T23:31:11.143Z,12.30
2022-12-04T23:33:38.483Z,12.40
2022-12-04T23:36:06.315Z,15.40
2022-12-04T23:38:35.463Z,11.60
2022-12-04T23:41:07.562Z,11.33
2022-12-04T23:43:35.332Z,11.17
2022-12-04T23:46:05.884Z,10.40
2022-12-04T23:48:35.658Z,11.73
2022-12-04T23:51:02.367Z,10.80
2022-12-04T23:53:28.960Z,11.87
2022-12-04T23:56:02.286Z,11.17
2022-12-04T23:58:28.876Z,11.30
